createdAt,value
2023-02-03T00:00:33.998Z,65.76
2023-02-03T00:03:01.488Z,70.83
2023-02-03T00:05:28.712Z,66.95
2023-02-03T00:07:55.844Z,68.09
2023-02-03T00:10:23.654Z,68.81
2023-02-03T00:12:52.772Z,65.79
2023-02-03T00:15:20.467Z,66.56
2023-02-03T00:17:47.910Z,65.10
2023-02-03T00:20:15.210Z,64.79
2023-02-03T00:22:42.428Z,68.54
2023-02-03T00:25:09.914Z,64.97
2023-02-03T00:27:37.157Z,68.12
2023-02-03T00:30:04.594Z,63.89
2023-02-03T00:32:32.426Z,63.00
2023-02-03T00:34:59.771Z,64.18
2023-02-03T00:37:26.931Z,61.33
2023-02-03T00:39:54.531Z,60.87
2023-02-03T00:42:21.620Z,59.54
2023-02-03T00:44:48.817Z,61.35
2023-02-03T00:47:16.375Z,60.98
2023-02-03T00:49:43.524Z,63.33
2023-02-03T00:52:10.856Z,62.72
2023-02-03T00:54:39.184Z,66.25
2023-02-03T00:57:06.456Z,67.70
2023-02-03T00:59:33.653Z,67.30
2023-02-03T01:02:01.224Z,59.25
2023-02-03T01:04:28.828Z,65.40
2023-02-03T01:06:57.705Z,67.11
2023-02-03T01:09:25.755Z,67.31
2023-02-03T01:11:54.871Z,66.57
2023-02-03T01:14:22.095Z,64.08
2023-02-03T01:16:49.673Z,61.22
2023-02-03T01:19:17.541Z,54.66
2023-02-03T01:21:45.156Z,59.33
2023-02-03T01:24:15.032Z,55.95
2023-02-03T01:26:42.656Z,52.40
2023-02-03T01:29:10.018Z,53.34
2023-02-03T01:31:39.793Z,51.43
2023-02-03T01:34:08.567Z,58.00
2023-02-03T01:36:35.975Z,64.87
2023-02-03T01:39:03.722Z,54.64
2023-02-03T01:41:32.037Z,56.92
2023-02-03T01:43:59.715Z,56.99
2023-02-03T01:46:37.479Z,58.06
2023-02-03T01:49:07.938Z,53.87
2023-02-03T01:51:35.752Z,55.98
2023-02-03T01:54:03.249Z,59.42
2023-02-03T01:56:30.700Z,65.04
2023-02-03T01:59:00.249Z,64.89
2023-02-03T02:01:28.529Z,63.94
2023-02-03T02:03:56.394Z,63.20
2023-02-03T02:06:23.711Z,61.31
2023-02-03T02:08:51.550Z,59.12
2023-02-03T02:11:21.397Z,62.57
2023-02-03T02:13:51.764Z,61.89
2023-02-03T02:16:24.506Z,64.13
2023-02-03T02:18:51.842Z,61.85
2023-02-03T02:21:19.545Z,66.32
2023-02-03T02:24:00.636Z,66.04
2023-02-03T02:26:40.216Z,63.78
2023-02-03T02:29:16.287Z,68.61
2023-02-03T02:31:47.714Z,64.51
2023-02-03T02:34:16.817Z,65.34
2023-02-03T02:36:55.021Z,60.18
2023-02-03T02:39:22.163Z,59.03
2023-02-03T02:41:53.508Z,59.36
2023-02-03T02:44:26.983Z,57.84
2023-02-03T02:46:58.388Z,57.84
2023-02-03T02:49:39.702Z,57.35
2023-02-03T02:52:08.542Z,57.82
2023-02-03T02:54:40.643Z,59.52
2023-02-03T02:57:11.199Z,59.25
2023-02-03T02:59:38.387Z,60.07
2023-02-03T03:02:05.573Z,60.89
2023-02-03T03:04:33.692Z,60.43
2023-02-03T03:07:11.990Z,60.47
2023-02-03T03:09:40.861Z,59.45
2023-02-03T03:12:08.281Z,57.92
2023-02-03T03:14:35.631Z,58.49
2023-02-03T03:17:05.016Z,57.52
2023-02-03T03:19:33.175Z,55.65
2023-02-03T03:22:01.806Z,56.80
2023-02-03T03:24:33.832Z,57.23
2023-02-03T03:27:21.218Z,58.39
2023-02-03T03:29:49.864Z,58.49
2023-02-03T03:32:17.374Z,58.20
2023-02-03T03:34:44.621Z,59.28
2023-02-03T03:37:17.829Z,58.30
2023-02-03T03:39:55.576Z,58.52
2023-02-03T03:42:29.602Z,57.20
2023-02-03T03:44:59.714Z,58.23
2023-02-03T03:47:30.563Z,58.79
2023-02-03T03:49:58.051Z,58.74
2023-02-03T03:52:26.944Z,59.56
2023-02-03T03:54:54.359Z,58.30
2023-02-03T03:57:23.212Z,57.41
2023-02-03T03:59:50.503Z,58.70
2023-02-03T04:02:18.402Z,59.50
2023-02-03T04:04:46.109Z,58.89
2023-02-03T04:07:14.221Z,58.18
2023-02-03T04:09:42.950Z,57.39
2023-02-03T04:12:14.302Z,56.25
2023-02-03T04:14:42.015Z,53.32
2023-02-03T04:17:09.418Z,55.50
2023-02-03T04:19:39.241Z,53.25
2023-02-03T04:22:06.476Z,54.95
2023-02-03T04:24:33.688Z,55.11
2023-02-03T04:27:01.123Z,54.47
2023-02-03T04:29:28.252Z,56.36
2023-02-03T04:31:55.595Z,54.92
2023-02-03T04:34:23.171Z,55.62
2023-02-03T04:36:50.278Z,55.62
2023-02-03T04:39:17.631Z,57.70
2023-02-03T04:41:45.140Z,55.90
2023-02-03T04:44:12.275Z,54.89
2023-02-03T04:46:39.707Z,54.20
2023-02-03T04:49:07.421Z,51.91
2023-02-03T04:51:34.739Z,50.15
2023-02-03T04:54:02.040Z,48.88
2023-02-03T04:56:29.624Z,47.33
2023-02-03T04:58:56.728Z,46.53
2023-02-03T05:01:24.141Z,45.60
2023-02-03T05:03:51.608Z,45.83
2023-02-03T05:06:22.934Z,45.84
2023-02-03T05:08:50.071Z,46.71
2023-02-03T05:11:17.483Z,51.87
2023-02-03T05:13:44.703Z,54.33
2023-02-03T05:16:12.057Z,58.87
2023-02-03T05:18:39.460Z,58.90
2023-02-03T05:21:06.743Z,60.42
2023-02-03T05:23:36.618Z,61.32
2023-02-03T05:26:04.994Z,63.50
2023-02-03T05:28:32.173Z,64.75
2023-02-03T05:30:59.619Z,65.04
2023-02-03T05:33:27.573Z,67.14
2023-02-03T05:35:54.742Z,64.54
2023-02-03T05:38:21.976Z,64.57
2023-02-03T05:41:08.238Z,63.87
2023-02-03T05:43:35.729Z,65.70
2023-02-03T05:46:06.782Z,59.70
2023-02-03T05:48:34.236Z,60.78
2023-02-03T05:51:01.556Z,57.81
2023-02-03T05:53:29.261Z,58.71
2023-02-03T05:55:56.579Z,58.08
2023-02-03T05:58:23.820Z,59.19
2023-02-03T06:00:51.861Z,59.69
2023-02-03T06:03:19.450Z,58.62
2023-02-03T06:05:46.813Z,59.81
2023-02-03T06:08:14.189Z,60.33
2023-02-03T06:10:41.931Z,60.49
2023-02-03T06:13:11.329Z,60.81
2023-02-03T06:15:38.940Z,60.88
2023-02-03T06:18:07.201Z,60.78
2023-02-03T06:20:34.869Z,60.39
2023-02-03T06:23:02.442Z,61.14
2023-02-03T06:25:32.732Z,60.74
2023-02-03T06:28:00.396Z,60.94
2023-02-03T06:30:28.444Z,61.15
2023-02-03T06:32:56.450Z,61.15
2023-02-03T06:35:25.048Z,60.68
2023-02-03T06:37:54.196Z,60.04
2023-02-03T06:40:22.090Z,59.03
2023-02-03T06:42:51.156Z,59.48
2023-02-03T06:45:19.221Z,61.08
2023-02-03T06:47:46.962Z,66.89
2023-02-03T06:50:15.419Z,69.01
2023-02-03T06:52:43.022Z,71.53
2023-02-03T06:55:11.293Z,70.03
2023-02-03T06:57:48.365Z,67.06
2023-02-03T07:00:19.196Z,71.34
2023-02-03T07:02:50.396Z,65.73
2023-02-03T07:05:18.339Z,64.59
2023-02-03T07:07:46.007Z,59.60
2023-02-03T07:10:13.541Z,61.49
2023-02-03T07:12:41.375Z,60.99
2023-02-03T07:15:09.481Z,61.08
2023-02-03T07:17:38.175Z,59.77
2023-02-03T07:20:06.243Z,60.30
2023-02-03T07:22:33.779Z,57.46
2023-02-03T07:25:01.204Z,54.87
2023-02-03T07:27:29.846Z,55.13
2023-02-03T07:29:57.510Z,54.63
2023-02-03T07:32:25.099Z,54.81
2023-02-03T07:34:53.793Z,54.79
2023-02-03T07:37:21.272Z,55.34
2023-02-03T07:39:48.927Z,55.96
2023-02-03T07:42:16.660Z,55.02
2023-02-03T07:44:44.287Z,58.71
2023-02-03T07:47:12.659Z,58.43
2023-02-03T07:49:40.484Z,56.05
2023-02-03T07:52:08.147Z,54.84
2023-02-03T07:54:35.586Z,56.13
2023-02-03T07:57:03.781Z,53.65
2023-02-03T07:59:31.294Z,59.35
2023-02-03T08:01:58.804Z,60.09
2023-02-03T08:04:26.689Z,59.30
2023-02-03T08:06:54.198Z,59.72
2023-02-03T08:09:22.029Z,55.62
2023-02-03T08:11:49.852Z,59.98
2023-02-03T08:14:17.369Z,58.67
2023-02-03T08:16:46.114Z,58.04
2023-02-03T08:19:14.189Z,57.06
2023-02-03T08:21:41.553Z,56.14
2023-02-03T08:24:09.345Z,56.10
2023-02-03T08:26:37.827Z,56.43
2023-02-03T08:29:06.030Z,60.47
2023-02-03T08:31:33.702Z,59.55
2023-02-03T08:34:14.020Z,62.91
2023-02-03T08:36:41.658Z,62.29
2023-02-03T08:39:09.734Z,62.98
2023-02-03T08:41:37.161Z,64.15
2023-02-03T08:44:04.555Z,66.07
2023-02-03T08:46:33.203Z,66.53
2023-02-03T08:49:02.858Z,64.71
2023-02-03T08:51:30.376Z,67.87
2023-02-03T08:53:58.236Z,68.95
2023-02-03T08:56:26.560Z,69.59
2023-02-03T08:58:55.894Z,68.97
2023-02-03T09:01:23.553Z,72.07
2023-02-03T09:03:50.775Z,73.65
2023-02-03T09:06:20.720Z,75.51
2023-02-03T09:08:49.557Z,78.77
2023-02-03T09:11:17.429Z,76.12
2023-02-03T09:13:48.694Z,77.97
2023-02-03T09:16:21.518Z,78.69
2023-02-03T09:18:49.063Z,79.64
2023-02-03T09:21:32.080Z,76.93
2023-02-03T09:24:04.101Z,79.06
2023-02-03T09:26:31.830Z,81.96
2023-02-03T09:28:59.177Z,79.89
2023-02-03T09:31:26.777Z,73.56
2023-02-03T09:33:54.708Z,74.80
2023-02-03T09:36:22.161Z,76.12
2023-02-03T09:38:49.321Z,73.59
2023-02-03T09:41:23.446Z,66.38
2023-02-03T09:43:55.799Z,68.21
2023-02-03T09:46:43.403Z,57.60
2023-02-03T09:49:22.857Z,54.39
2023-02-03T09:51:51.794Z,61.07
2023-02-03T09:54:35.180Z,59.14
2023-02-03T09:57:02.847Z,66.52
2023-02-03T09:59:30.065Z,63.13
2023-02-03T10:02:03.039Z,67.82
2023-02-03T10:04:39.995Z,63.20
2023-02-03T10:07:25.362Z,61.98
2023-02-03T10:09:52.960Z,68.50
2023-02-03T10:12:31.828Z,67.12
2023-02-03T10:15:18.375Z,70.52
2023-02-03T10:17:47.473Z,71.49
2023-02-03T10:20:21.795Z,69.70
2023-02-03T10:22:50.581Z,75.38
2023-02-03T10:25:35.089Z,79.26
2023-02-03T10:28:03.748Z,82.58
2023-02-03T10:30:33.335Z,83.23
2023-02-03T10:33:02.586Z,84.73
2023-02-03T10:35:35.966Z,85.88
2023-02-03T10:38:03.524Z,86.48
2023-02-03T10:40:31.173Z,87.22
2023-02-03T10:43:17.775Z,88.12
2023-02-03T10:45:45.561Z,86.93
2023-02-03T10:48:14.360Z,84.36
2023-02-03T10:50:42.965Z,83.99
2023-02-03T10:53:21.418Z,85.29
2023-02-03T10:55:53.225Z,84.82
2023-02-03T10:58:28.073Z,81.96
2023-02-03T11:00:59.212Z,81.78
2023-02-03T11:03:27.725Z,80.65
2023-02-03T11:06:03.741Z,81.14
2023-02-03T11:08:32.324Z,79.55
2023-02-03T11:11:04.413Z,77.24
2023-02-03T11:13:32.514Z,76.10
2023-02-03T11:16:01.342Z,82.66
2023-02-03T11:18:41.558Z,78.73
2023-02-03T11:21:09.580Z,66.04
2023-02-03T11:23:37.624Z,66.65
2023-02-03T11:26:11.932Z,64.15
2023-02-03T11:28:41.628Z,72.41
2023-02-03T11:31:18.153Z,77.03
2023-02-03T11:34:05.794Z,78.04
2023-02-03T11:36:37.612Z,74.37
2023-02-03T11:39:28.740Z,77.15
2023-02-03T11:41:56.149Z,79.69
2023-02-03T11:44:23.621Z,80.36
2023-02-03T11:46:52.610Z,78.13
2023-02-03T11:49:38.688Z,78.34
2023-02-03T11:52:20.542Z,81.33
2023-02-03T11:55:06.917Z,85.11
2023-02-03T11:57:45.001Z,86.26
2023-02-03T12:00:13.294Z,81.70
2023-02-03T12:02:50.171Z,81.50
2023-02-03T12:05:29.678Z,81.60
2023-02-03T12:08:08.732Z,79.72
2023-02-03T12:10:39.352Z,76.43
2023-02-03T12:13:16.958Z,71.23
2023-02-03T12:15:50.300Z,77.70
2023-02-03T12:18:24.054Z,75.52
2023-02-03T12:20:59.465Z,75.90
2023-02-03T12:23:39.379Z,74.49
2023-02-03T12:26:09.689Z,72.85
2023-02-03T12:28:46.474Z,74.95
2023-02-03T12:31:32.679Z,71.71
2023-02-03T12:34:03.052Z,70.79
2023-02-03T12:36:31.238Z,65.94
2023-02-03T12:39:03.136Z,62.29
2023-02-03T12:41:31.978Z,66.09
2023-02-03T12:44:02.360Z,72.84
2023-02-03T12:46:32.933Z,75.32
2023-02-03T12:49:06.055Z,78.47
2023-02-03T12:51:39.926Z,74.95
2023-02-03T12:54:25.867Z,69.74
2023-02-03T12:56:55.869Z,79.18
2023-02-03T12:59:25.977Z,81.85
2023-02-03T13:01:58.691Z,78.80
2023-02-03T13:04:46.964Z,78.89
2023-02-03T13:07:37.631Z,72.92
2023-02-03T13:10:35.834Z,69.02
2023-02-03T13:13:04.702Z,70.49
2023-02-03T13:15:44.223Z,66.26
2023-02-03T13:18:29.476Z,64.26
2023-02-03T13:20:57.128Z,67.65
2023-02-03T13:23:24.408Z,64.50
2023-02-03T13:26:11.238Z,61.50
2023-02-03T13:28:59.728Z,58.88
2023-02-03T13:31:45.828Z,73.82
2023-02-03T13:34:16.104Z,75.54
2023-02-03T13:36:52.467Z,67.51
2023-02-03T13:39:32.364Z,63.38
2023-02-03T13:42:20.217Z,61.77
2023-02-03T13:44:49.926Z,62.96
2023-02-03T13:47:18.710Z,74.09
2023-02-03T13:49:48.327Z,64.08
2023-02-03T13:52:36.464Z,62.03
2023-02-03T13:55:04.354Z,63.18
2023-02-03T13:57:33.904Z,64.66
2023-02-03T14:00:03.190Z,60.66
2023-02-03T14:02:41.589Z,71.00
2023-02-03T14:05:29.738Z,70.21
2023-02-03T14:07:57.348Z,66.59
2023-02-03T14:10:25.860Z,62.80
2023-02-03T14:12:53.367Z,70.06
2023-02-03T14:15:20.569Z,65.92
2023-02-03T14:17:48.110Z,71.86
2023-02-03T14:20:27.638Z,74.46
2023-02-03T14:23:07.153Z,81.19
2023-02-03T14:25:41.420Z,83.30
2023-02-03T14:28:12.256Z,85.95
2023-02-03T14:31:03.460Z,88.42
2023-02-03T14:33:51.341Z,90.01
2023-02-03T14:36:28.248Z,89.63
2023-02-03T14:38:57.002Z,88.65
2023-02-03T14:41:38.717Z,89.43
2023-02-03T14:44:18.950Z,91.38
2023-02-03T14:47:14.899Z,91.51
2023-02-03T14:49:56.900Z,90.09
2023-02-03T14:52:37.681Z,90.09
2023-02-03T14:55:24.479Z,88.01
2023-02-03T14:57:56.603Z,86.29
2023-02-03T15:00:27.480Z,86.14
2023-02-03T15:03:09.985Z,88.52
2023-02-03T15:05:41.985Z,90.46
2023-02-03T15:08:36.619Z,86.65
2023-02-03T15:11:42.383Z,85.00
2023-02-03T15:14:18.924Z,85.62
2023-02-03T15:16:51.754Z,86.00
2023-02-03T15:19:23.674Z,87.43
2023-02-03T15:21:52.484Z,86.37
2023-02-03T15:24:23.893Z,86.66
2023-02-03T15:26:54.853Z,84.50
2023-02-03T15:29:30.366Z,90.68
2023-02-03T15:32:14.286Z,93.00
2023-02-03T15:34:48.027Z,94.11
2023-02-03T15:37:52.609Z,95.46
2023-02-03T15:40:24.316Z,94.14
2023-02-03T15:42:58.173Z,95.17
2023-02-03T15:45:32.286Z,94.61
2023-02-03T15:48:18.242Z,94.38
2023-02-03T15:51:06.237Z,95.04
2023-02-03T15:53:47.219Z,95.63
2023-02-03T15:56:41.695Z,94.21
2023-02-03T15:59:31.257Z,93.29
2023-02-03T16:02:01.485Z,92.81
2023-02-03T16:04:31.417Z,94.14
2023-02-03T16:06:59.078Z,93.51
2023-02-03T16:09:34.859Z,93.88
2023-02-03T16:12:06.495Z,93.79
2023-02-03T16:14:36.307Z,94.44
2023-02-03T16:17:06.164Z,95.01
2023-02-03T16:19:40.336Z,93.85
2023-02-03T16:22:32.078Z,96.07
2023-02-03T16:25:14.105Z,95.97
2023-02-03T16:27:44.631Z,96.17
2023-02-03T16:30:30.610Z,95.00
2023-02-03T16:33:23.496Z,96.97
2023-02-03T16:36:09.639Z,95.43
2023-02-03T16:38:55.983Z,95.76
2023-02-03T16:41:41.839Z,96.86
2023-02-03T16:44:30.178Z,96.31
2023-02-03T16:47:16.794Z,95.41
2023-02-03T16:50:03.717Z,97.22
2023-02-03T16:52:32.002Z,97.42
2023-02-03T16:54:59.882Z,96.57
2023-02-03T16:57:28.727Z,97.26
2023-02-03T16:59:56.821Z,97.40
2023-02-03T17:02:24.772Z,95.38
2023-02-03T17:04:52.270Z,96.03
2023-02-03T17:07:20.029Z,98.54
2023-02-03T17:09:47.887Z,98.83
2023-02-03T17:12:15.734Z,98.46
2023-02-03T17:14:43.341Z,97.27
2023-02-03T17:17:11.159Z,95.69
2023-02-03T17:19:39.095Z,98.20
2023-02-03T17:22:07.882Z,96.29
2023-02-03T17:24:37.167Z,96.58
2023-02-03T17:27:04.943Z,97.96
2023-02-03T17:29:33.085Z,98.13
2023-02-03T17:32:01.261Z,98.64
2023-02-03T17:34:29.268Z,95.80
2023-02-03T17:36:57.094Z,96.96
2023-02-03T17:55:43.264Z,95.00
2023-02-03T17:58:11.034Z,96.39
2023-02-03T18:00:38.797Z,96.95
2023-02-03T18:03:06.619Z,95.17
2023-02-03T18:05:37.158Z,97.18
2023-02-03T18:08:12.386Z,96.96
2023-02-03T18:10:45.397Z,96.14
2023-02-03T18:13:13.499Z,95.88
2023-02-03T18:15:41.127Z,95.17
2023-02-03T18:18:09.677Z,96.48
2023-02-03T18:20:38.680Z,95.40
2023-02-03T18:23:06.924Z,95.52
2023-02-03T18:25:36.156Z,95.00
2023-02-03T18:28:04.315Z,93.14
2023-02-03T18:30:33.055Z,90.67
2023-02-03T18:33:02.560Z,91.52
2023-02-03T18:35:33.813Z,92.52
2023-02-03T18:38:03.671Z,95.08
2023-02-03T18:40:32.836Z,94.30
2023-02-03T18:43:02.412Z,94.24
2023-02-03T18:45:35.479Z,94.53
2023-02-03T18:48:07.208Z,94.31
2023-02-03T18:50:37.380Z,94.27
2023-02-03T18:53:07.810Z,93.43
2023-02-03T18:55:38.006Z,95.67
2023-02-03T18:58:08.104Z,93.13
2023-02-03T19:00:38.007Z,93.75
2023-02-03T19:03:06.695Z,90.41
2023-02-03T19:05:35.334Z,90.17
2023-02-03T19:08:04.409Z,91.49
2023-02-03T19:10:33.367Z,90.65
2023-02-03T19:13:03.447Z,92.21
2023-02-03T19:15:33.370Z,92.49
2023-02-03T19:18:02.612Z,86.98
2023-02-03T19:20:31.658Z,88.02
2023-02-03T19:23:04.151Z,83.96
2023-02-03T19:25:32.734Z,84.36
2023-02-03T19:28:03.660Z,87.57
2023-02-03T19:30:32.969Z,90.72
2023-02-03T19:33:02.445Z,92.13
2023-02-03T19:35:30.473Z,90.95
2023-02-03T19:37:58.044Z,88.97
2023-02-03T19:40:27.149Z,91.19
2023-02-03T19:42:55.721Z,90.82
2023-02-03T19:45:24.604Z,88.84
2023-02-03T19:47:53.779Z,85.86
2023-02-03T19:50:21.953Z,85.82
2023-02-03T19:52:50.762Z,87.56
2023-02-03T19:55:19.771Z,87.92
2023-02-03T19:57:51.646Z,91.82
2023-02-03T20:00:21.027Z,92.63
2023-02-03T20:02:50.287Z,94.14
2023-02-03T20:05:18.623Z,89.10
2023-02-03T20:07:47.454Z,83.10
2023-02-03T20:10:16.363Z,83.41
2023-02-03T20:12:45.031Z,86.98
2023-02-03T20:15:15.283Z,85.69
2023-02-03T20:17:44.569Z,82.34
2023-02-03T20:20:14.166Z,82.40
2023-02-03T20:22:45.457Z,78.50
2023-02-03T20:25:13.661Z,77.35
2023-02-03T20:27:42.408Z,79.53
2023-02-03T20:30:11.356Z,79.94
2023-02-03T20:32:40.010Z,76.90
2023-02-03T20:35:08.654Z,75.88
2023-02-03T20:37:39.623Z,78.46
2023-02-03T20:40:13.368Z,71.66
2023-02-03T20:42:43.337Z,71.20
2023-02-03T20:45:15.522Z,73.70
2023-02-03T20:47:44.886Z,70.32
2023-02-03T20:50:16.387Z,69.26
2023-02-03T20:52:46.300Z,70.03
2023-02-03T20:55:16.032Z,72.89
2023-02-03T20:57:45.153Z,70.46
2023-02-03T21:00:15.339Z,70.19
2023-02-03T21:03:02.278Z,74.90
2023-02-03T21:05:49.167Z,78.04
2023-02-03T21:08:19.466Z,81.50
2023-02-03T21:10:47.998Z,75.69
2023-02-03T21:13:19.622Z,71.61
2023-02-03T21:15:49.892Z,78.73
2023-02-03T21:18:33.354Z,79.95
2023-02-03T21:21:02.567Z,76.03
2023-02-03T21:23:36.663Z,79.39
2023-02-03T21:26:27.109Z,80.14
2023-02-03T21:28:56.217Z,80.20
2023-02-03T21:31:29.970Z,78.76
2023-02-03T21:33:59.388Z,81.08
2023-02-03T21:36:36.418Z,81.10
2023-02-03T21:39:10.389Z,80.76
2023-02-03T21:41:39.958Z,78.57
2023-02-03T21:44:21.807Z,77.17
2023-02-03T21:46:50.969Z,78.31
2023-02-03T21:49:19.218Z,80.62
2023-02-03T21:51:47.594Z,77.10
2023-02-03T21:54:21.665Z,75.98
2023-02-03T21:56:50.791Z,77.86
2023-02-03T21:59:19.593Z,74.61
2023-02-03T22:01:47.742Z,73.87
2023-02-03T22:04:15.921Z,72.37
2023-02-03T22:06:44.775Z,72.62
2023-02-03T22:09:12.926Z,76.51
2023-02-03T22:11:40.664Z,78.36
2023-02-03T22:14:08.304Z,77.38
2023-02-03T22:16:35.745Z,76.26
2023-02-03T22:19:03.640Z,75.38
2023-02-03T22:21:30.953Z,73.70
2023-02-03T22:23:59.053Z,75.62
2023-02-03T22:26:26.765Z,73.03
2023-02-03T22:28:54.082Z,76.81
2023-02-03T22:31:21.517Z,75.57
2023-02-03T22:33:49.735Z,75.34
2023-02-03T22:36:17.104Z,74.55
2023-02-03T22:38:44.331Z,75.97
2023-02-03T22:41:14.894Z,74.33
2023-02-03T22:43:42.138Z,73.95
2023-02-03T22:46:09.818Z,74.49
2023-02-03T22:48:37.320Z,74.40
2023-02-03T22:51:05.016Z,72.65
2023-02-03T22:53:32.226Z,74.28
2023-02-03T22:56:00.138Z,74.73
2023-02-03T22:58:27.301Z,74.47
2023-02-03T23:00:54.994Z,78.10
2023-02-03T23:03:22.553Z,75.99
2023-02-03T23:05:49.763Z,73.05
2023-02-03T23:08:16.934Z,75.09
2023-02-03T23:10:44.507Z,78.50
2023-02-03T23:13:11.860Z,75.62
2023-02-03T23:15:39.129Z,79.38
2023-02-03T23:18:06.615Z,77.27
2023-02-03T23:20:33.911Z,76.75
2023-02-03T23:23:01.107Z,75.70
2023-02-03T23:25:28.783Z,78.68
2023-02-03T23:27:56.029Z,76.52
2023-02-03T23:30:23.204Z,76.27
2023-02-03T23:32:50.763Z,81.17
2023-02-03T23:35:36.464Z,81.23
2023-02-03T23:38:04.358Z,82.08
2023-02-03T23:40:31.819Z,81.43
2023-02-03T23:42:59.216Z,80.74
2023-02-03T23:45:26.860Z,78.98
2023-02-03T23:47:54.222Z,78.85
2023-02-03T23:50:21.721Z,77.42
2023-02-03T23:52:49.154Z,80.78
2023-02-03T23:55:18.549Z,81.31
2023-02-03T23:57:45.942Z,80.65
